Quincy Regional Baldwin Field
KUIN : now visible

Airfield :











YOU CAN JOIN US ON...

 
LOGIN :

Register | Disclaimer

   EN    FR    IT 

 









Legend :    VFR   Marginal VFR   IFR   Intensive IFR   Very Intensive IFR
Visi :
Ceiling :
>= 8 km
>= 3000ft
5 to 8 km
1000 to 3000 ft
1500m to 5 km
500 to 1000 ft
800 to 1500m
200 to 500 ft
< 800m
< 200 ft
Symbols :   Thunderstorms  Fog  Heavy snow  Heavy precipitations  Wind > 20 kt






- Airport Elevation : 768 ft
- IATA code : UIN


KUIN - Quincy Regional Baldwin Field

CURRENT METAR :
  • 101554Z AUTO 29007KT 10SM OVC060 M06/M12 A3026 RMK AO2 SLP257 T10561122

EXPIRED METARs :
  • 101454Z AUTO 26006KT 10SM BKN070 M07/M12 A3024 RMK AO2 SLP253 T10671122 51025
  • 101354Z AUTO 27003KT 10SM CLR M08/M12 A3022 RMK AO2 SLP246 T10831122

TAF KUIN
Valid from the 10 at 12:00 until the 11 at 12:00 UTC


101120Z 1012/1112 29008KT P6SM SCT060
FM101900 28008KT P6SM FEW100
FM110700 VRB04KT P6SM FEW200
FM111000 19005KT P6SM SCT080



MET'MAP, your aeronautical weather chart ! - Copyright ORBIFLY December 2007 - Disclaimer

ORBIFLY MET'MAP TEAM :

Programming & Development : Alexandra Zaïnal
Concept & original design : Baudouin d'Aumeries
Assistance for programming : Marc-Olivier Méhu
Technical & hardware support : Manuel Goepfert

Contact : metmap@orbifly.com




SOURCES & CREDITS :

   NOAA       Earth
Advisory